createdAt,value
2019-03-12T00:01:07.887Z,5.31
2019-03-12T00:03:35.208Z,4.98
2019-03-12T00:06:02.293Z,4.89
2019-03-12T00:08:29.482Z,4.72
2019-03-12T00:10:56.762Z,4.49
2019-03-12T00:13:24.297Z,4.51
2019-03-12T00:15:51.467Z,4.39
2019-03-12T00:18:18.652Z,4.59
2019-03-12T00:20:45.765Z,4.61
2019-03-12T00:23:13.341Z,4.63
2019-03-12T00:25:40.532Z,4.56
2019-03-12T00:28:07.722Z,4.57
2019-03-12T00:30:34.909Z,4.39
2019-03-12T00:33:02.020Z,4.46
2019-03-12T00:35:29.088Z,4.49
2019-03-12T00:37:56.310Z,4.51
2019-03-12T00:40:23.785Z,4.31
2019-03-12T00:42:50.998Z,4.23
2019-03-12T00:45:18.067Z,4.11
2019-03-12T00:47:45.525Z,4.17
2019-03-12T00:50:12.814Z,4.07
2019-03-12T00:52:39.964Z,4.08
2019-03-12T00:55:07.810Z,4.65
2019-03-12T00:57:34.980Z,4.62
2019-03-12T01:00:02.786Z,4.68
2019-03-12T01:02:30.264Z,4.57
2019-03-12T01:04:57.419Z,4.41
2019-03-12T01:07:24.543Z,4.30
2019-03-12T01:09:51.854Z,4.36
2019-03-12T01:12:19.106Z,4.52
2019-03-12T01:14:46.305Z,4.62
2019-03-12T01:17:13.555Z,5.01
2019-03-12T01:19:41.041Z,4.94
2019-03-12T01:22:08.317Z,4.90
2019-03-12T01:24:35.546Z,4.89
2019-03-12T01:27:02.725Z,5.12
2019-03-12T01:29:29.898Z,5.31
2019-03-12T01:31:57.105Z,5.31
2019-03-12T01:34:24.369Z,5.36
2019-03-12T01:36:51.742Z,5.39
2019-03-12T01:39:18.940Z,5.21
2019-03-12T01:41:46.206Z,5.03
2019-03-12T01:44:13.364Z,4.86
2019-03-12T01:46:40.546Z,4.84
2019-03-12T01:49:08.908Z,4.68
2019-03-12T01:51:36.097Z,4.64
2019-03-12T01:54:03.315Z,4.69
2019-03-12T01:56:30.575Z,4.81
2019-03-12T01:58:57.772Z,4.90
2019-03-12T02:01:24.941Z,5.06
2019-03-12T02:03:52.212Z,5.12
2019-03-12T02:06:19.469Z,5.05
2019-03-12T02:08:46.839Z,4.93
2019-03-12T02:11:13.993Z,4.70
2019-03-12T02:13:41.652Z,4.46
2019-03-12T02:16:09.387Z,4.24
2019-03-12T02:18:36.840Z,4.09
2019-03-12T02:21:04.107Z,4.06
2019-03-12T02:23:31.306Z,4.18
2019-03-12T02:25:58.461Z,4.20
2019-03-12T02:28:26.021Z,4.31
2019-03-12T02:30:53.137Z,4.70
2019-03-12T02:33:20.469Z,4.72
2019-03-12T02:35:47.516Z,4.77
2019-03-12T02:38:14.769Z,4.94
2019-03-12T02:40:41.943Z,4.75
2019-03-12T02:43:09.141Z,4.41
2019-03-12T02:45:36.318Z,4.20
2019-03-12T02:48:03.588Z,4.05
2019-03-12T02:50:30.677Z,4.07
2019-03-12T02:52:57.859Z,4.08
2019-03-12T02:55:25.049Z,4.04
2019-03-12T02:57:52.218Z,4.03
2019-03-12T03:00:20.577Z,4.00
2019-03-12T03:02:47.846Z,3.96
2019-03-12T03:05:15.054Z,3.95
2019-03-12T03:07:53.126Z,4.05
2019-03-12T03:10:20.467Z,3.98
2019-03-12T03:12:47.904Z,3.93
2019-03-12T03:15:19.617Z,3.88
2019-03-12T03:17:46.660Z,3.96
2019-03-12T03:20:14.084Z,3.96
2019-03-12T03:22:41.455Z,3.91
2019-03-12T03:25:08.735Z,4.18
2019-03-12T03:27:36.256Z,4.08
2019-03-12T03:30:05.545Z,3.99
2019-03-12T03:32:33.480Z,4.01
2019-03-12T03:35:00.902Z,4.03
2019-03-12T03:37:28.559Z,4.17
2019-03-12T03:39:55.755Z,4.03
2019-03-12T03:42:23.055Z,3.99
2019-03-12T03:44:50.363Z,3.85
2019-03-12T03:47:19.935Z,3.76
2019-03-12T03:49:46.614Z,3.63
2019-03-12T03:52:13.808Z,3.55
2019-03-12T03:54:40.906Z,3.58
2019-03-12T03:57:08.076Z,3.74
2019-03-12T03:59:35.189Z,4.15
2019-03-12T04:02:02.434Z,4.55
2019-03-12T04:04:29.696Z,4.66
2019-03-12T04:06:56.983Z,4.53
2019-03-12T04:09:24.175Z,4.53
2019-03-12T04:11:51.345Z,4.45
2019-03-12T04:14:18.564Z,4.24
2019-03-12T04:16:45.721Z,4.01
2019-03-12T04:19:12.960Z,3.82
2019-03-12T04:21:40.147Z,3.80
2019-03-12T04:24:08.378Z,3.75
2019-03-12T04:26:35.912Z,3.78
2019-03-12T04:29:03.403Z,3.87
2019-03-12T04:31:30.563Z,3.90
2019-03-12T04:34:11.487Z,3.86
2019-03-12T04:36:38.894Z,3.69
2019-03-12T04:39:06.124Z,3.49
2019-03-12T04:41:33.227Z,3.26
2019-03-12T04:44:00.873Z,3.20
2019-03-12T04:46:28.036Z,2.95
2019-03-12T04:48:55.518Z,2.85
2019-03-12T04:51:22.679Z,2.82
2019-03-12T04:53:49.878Z,2.82
2019-03-12T04:56:17.432Z,3.00
2019-03-12T04:58:44.805Z,3.00
2019-03-12T05:01:12.071Z,2.87
2019-03-12T05:03:39.675Z,2.72
2019-03-12T05:06:06.824Z,2.62
2019-03-12T05:08:35.920Z,2.52
2019-03-12T05:11:03.535Z,2.43
2019-03-12T05:13:30.733Z,2.39
2019-03-12T05:15:58.129Z,2.44
2019-03-12T05:18:25.659Z,2.67
2019-03-12T05:20:52.915Z,2.53
2019-03-12T05:23:20.007Z,2.41
2019-03-12T05:25:47.238Z,2.31
2019-03-12T05:28:14.283Z,2.11
2019-03-12T05:30:41.529Z,1.93
2019-03-12T05:33:08.604Z,1.77
2019-03-12T05:35:35.686Z,1.64
2019-03-12T05:38:02.848Z,1.62
2019-03-12T05:40:30.487Z,1.84
2019-03-12T05:42:57.686Z,2.35
2019-03-12T05:48:26.388Z,2.57
2019-03-12T05:50:53.453Z,2.47
2019-03-12T05:56:22.117Z,2.72
2019-03-12T05:58:49.275Z,2.81
2019-03-12T06:04:18.518Z,2.87
2019-03-12T06:06:45.661Z,3.05
2019-03-12T06:12:27.184Z,3.40
2019-03-12T06:14:54.250Z,3.63
2019-03-12T06:20:22.904Z,3.86
2019-03-12T06:22:50.095Z,4.46
2019-03-12T06:31:58.555Z,4.76
2019-03-12T06:35:06.537Z,4.85
2019-03-12T06:38:05.637Z,4.96
2019-03-12T06:44:06.864Z,5.38
2019-03-12T06:46:46.141Z,5.61
2019-03-12T06:49:32.937Z,5.73
2019-03-12T06:52:40.995Z,6.03
2019-03-12T06:55:49.253Z,6.69
2019-03-12T06:58:35.984Z,7.90
2019-03-12T07:01:44.051Z,10.45
2019-03-12T07:08:06.328Z,15.09
2019-03-12T07:10:58.943Z,14.42
2019-03-12T07:13:57.952Z,12.49
2019-03-12T07:16:36.105Z,11.14
2019-03-12T07:19:44.134Z,10.21
2019-03-12T07:22:30.870Z,9.53
2019-03-12T07:25:17.689Z,10.18
2019-03-12T07:28:04.415Z,12.63
2019-03-12T07:31:12.509Z,15.53
2019-03-12T07:33:59.288Z,17.74
2019-03-12T07:36:32.129Z,19.61
2019-03-12T07:39:18.834Z,21.42
2019-03-12T07:42:05.641Z,23.21
2019-03-12T07:51:16.735Z,26.87
2019-03-12T07:54:03.514Z,26.47
2019-03-12T07:56:50.251Z,25.68
2019-03-12T07:59:37.371Z,25.11
2019-03-12T08:02:24.064Z,25.31
2019-03-12T08:05:32.011Z,25.45
2019-03-12T08:08:05.227Z,25.39
2019-03-12T08:10:51.947Z,25.48
2019-03-12T08:13:38.704Z,25.76
2019-03-12T08:16:25.537Z,26.56
2019-03-12T08:19:12.299Z,27.30
2019-03-12T08:31:14.016Z,29.61
2019-03-12T08:34:00.811Z,30.25
2019-03-12T08:40:07.588Z,31.06
2019-03-12T08:42:54.472Z,31.28
2019-03-12T08:45:35.468Z,30.29
2019-03-12T08:48:22.156Z,30.41
2019-03-12T08:51:08.867Z,30.47
2019-03-12T08:53:55.613Z,30.07
2019-03-12T08:56:42.414Z,30.06
2019-03-12T09:02:02.581Z,30.24
2019-03-12T09:04:49.548Z,29.11
2019-03-12T09:07:36.369Z,29.04
2019-03-12T09:16:58.312Z,27.77
2019-03-12T09:19:45.068Z,28.34
2019-03-12T09:22:31.876Z,28.65
2019-03-12T09:31:30.527Z,29.22
2019-03-12T09:34:17.181Z,28.18
2019-03-12T09:37:03.983Z,27.04
2019-03-12T09:39:50.726Z,25.40
2019-03-12T09:42:37.894Z,23.45
2019-03-12T09:45:46.373Z,21.29
2019-03-12T09:48:33.198Z,19.43
2019-03-12T09:51:05.897Z,18.20
2019-03-12T09:53:48.931Z,16.95
2019-03-12T09:56:35.726Z,16.07
2019-03-12T09:59:15.266Z,15.22
2019-03-12T10:05:28.599Z,13.52
2019-03-12T10:08:15.354Z,13.19
2019-03-12T10:11:02.151Z,12.63
2019-03-12T10:17:09.225Z,12.73
2019-03-12T10:19:58.233Z,13.03
2019-03-12T10:22:45.309Z,13.14
2019-03-12T10:28:54.785Z,13.68
2019-03-12T10:34:42.645Z,13.51
2019-03-12T10:37:29.820Z,14.00
2019-03-12T10:43:32.324Z,14.58
2019-03-12T10:46:11.707Z,14.44
2019-03-12T10:54:54.075Z,13.96
2019-03-12T10:57:21.693Z,13.94
2019-03-12T11:00:51.232Z,13.93
2019-03-12T11:06:52.300Z,14.04
2019-03-12T11:09:19.635Z,13.81
2019-03-12T11:11:46.852Z,13.87
2019-03-12T11:14:14.098Z,14.30
2019-03-12T11:20:15.701Z,14.61
2019-03-12T11:22:43.012Z,14.97
2019-03-12T11:25:27.279Z,14.89
2019-03-12T11:31:11.896Z,14.48
2019-03-12T11:33:38.996Z,14.49
2019-03-12T11:36:06.103Z,14.73
2019-03-12T11:38:33.952Z,15.01
2019-03-12T11:44:21.081Z,15.46
2019-03-12T11:46:48.349Z,15.45
2019-03-12T11:55:09.262Z,15.15
2019-03-12T11:57:36.773Z,14.93
2019-03-12T12:00:45.046Z,14.59
2019-03-12T12:03:12.216Z,14.73
2019-03-12T12:05:39.299Z,14.78
2019-03-12T12:08:06.535Z,14.62
2019-03-12T12:10:34.113Z,14.42
2019-03-12T12:13:01.311Z,14.22
2019-03-12T12:15:28.731Z,14.09
2019-03-12T12:17:56.315Z,14.03
2019-03-12T12:20:29.713Z,13.97
2019-03-12T12:22:52.694Z,13.88
2019-03-12T12:25:20.342Z,13.79
2019-03-12T12:27:47.580Z,13.94
2019-03-12T12:30:16.209Z,13.89
2019-03-12T12:32:43.510Z,13.87
2019-03-12T12:35:11.095Z,13.91
2019-03-12T12:37:38.281Z,13.97
2019-03-12T12:40:07.052Z,14.01
2019-03-12T12:42:36.154Z,13.98
2019-03-12T12:45:04.228Z,13.99
2019-03-12T12:47:31.693Z,14.03
2019-03-12T12:49:59.152Z,14.25
2019-03-12T12:52:26.444Z,14.22
2019-03-12T12:54:54.273Z,14.30
2019-03-12T12:57:21.391Z,14.30
2019-03-12T12:59:48.591Z,14.31
2019-03-12T13:02:15.688Z,14.36
2019-03-12T13:04:42.904Z,14.22
2019-03-12T13:07:11.944Z,13.83
2019-03-12T13:09:39.462Z,13.65
2019-03-12T13:12:06.667Z,13.54
2019-03-12T13:14:41.386Z,13.48
2019-03-12T13:17:03.051Z,13.48
2019-03-12T13:19:30.598Z,13.63
2019-03-12T13:21:57.891Z,14.05
2019-03-12T13:24:25.472Z,14.20
2019-03-12T13:26:52.669Z,14.41
2019-03-12T13:29:19.888Z,14.64
2019-03-12T13:31:47.056Z,14.82
2019-03-12T13:34:14.230Z,14.92
2019-03-12T13:36:41.452Z,14.84
2019-03-12T13:39:08.593Z,14.73
2019-03-12T13:41:35.780Z,14.52
2019-03-12T13:44:03.029Z,14.47
2019-03-12T13:46:30.496Z,14.49
2019-03-12T13:48:57.792Z,14.23
2019-03-12T13:51:24.977Z,14.19
2019-03-12T13:53:52.161Z,14.10
2019-03-12T13:56:19.352Z,13.92
2019-03-12T13:58:46.598Z,13.68
2019-03-12T14:01:13.908Z,13.58
2019-03-12T14:03:41.567Z,13.57
2019-03-12T14:06:08.953Z,13.27
2019-03-12T14:08:36.112Z,13.16
2019-03-12T14:11:03.422Z,13.16
2019-03-12T14:13:30.619Z,13.16
2019-03-12T14:15:57.837Z,13.01
2019-03-12T14:18:25.012Z,12.84
2019-03-12T14:21:04.211Z,12.84
2019-03-12T14:23:37.042Z,12.79
2019-03-12T14:26:04.475Z,12.58
2019-03-12T14:28:31.752Z,12.37
2019-03-12T14:30:58.959Z,12.42
2019-03-12T14:33:26.381Z,12.74
2019-03-12T14:35:53.554Z,12.88
2019-03-12T14:38:20.888Z,13.08
2019-03-12T14:40:48.480Z,13.23
2019-03-12T14:43:16.072Z,13.36
2019-03-12T14:45:46.882Z,13.44
2019-03-12T14:48:36.038Z,13.43
2019-03-12T14:51:03.957Z,13.44
2019-03-12T14:53:31.205Z,13.48
2019-03-12T14:55:58.404Z,13.52
2019-03-12T14:58:25.590Z,13.63
2019-03-12T15:00:52.884Z,13.50
2019-03-12T15:03:20.099Z,13.33
2019-03-12T15:05:47.167Z,12.98
2019-03-12T15:08:14.351Z,12.62
2019-03-12T15:10:41.952Z,12.41
2019-03-12T15:13:09.119Z,12.21
2019-03-12T15:15:36.405Z,12.13
2019-03-12T15:18:03.835Z,12.11
2019-03-12T15:20:30.914Z,12.04
2019-03-12T15:22:58.003Z,12.02
2019-03-12T15:25:25.359Z,11.95
2019-03-12T15:27:52.682Z,11.99
2019-03-12T15:30:19.923Z,11.90
2019-03-12T15:32:47.306Z,11.82
2019-03-12T15:35:14.695Z,11.66
2019-03-12T15:37:41.920Z,11.67
2019-03-12T15:40:09.273Z,11.71
2019-03-12T15:42:36.772Z,11.68
2019-03-12T15:45:04.797Z,11.71
2019-03-12T15:47:33.994Z,11.67
2019-03-12T15:50:01.124Z,11.66
2019-03-12T15:52:28.512Z,11.60
2019-03-12T15:54:55.941Z,11.63
2019-03-12T15:57:23.110Z,11.62
2019-03-12T15:59:50.209Z,11.60
2019-03-12T16:02:17.441Z,11.57
2019-03-12T16:04:44.524Z,11.61
2019-03-12T16:07:11.732Z,11.55
2019-03-12T16:09:38.929Z,11.50
2019-03-12T16:12:06.128Z,11.48
2019-03-12T16:14:33.238Z,11.42
2019-03-12T16:17:00.525Z,11.28
2019-03-12T16:19:28.230Z,11.19
2019-03-12T16:21:55.481Z,11.08
2019-03-12T16:24:22.836Z,11.03
2019-03-12T16:26:50.064Z,10.92
2019-03-12T16:29:17.268Z,10.86
2019-03-12T16:31:45.286Z,10.78
2019-03-12T16:34:12.468Z,10.78
2019-03-12T16:36:39.665Z,10.77
2019-03-12T16:39:07.033Z,10.61
2019-03-12T16:41:34.100Z,10.52
2019-03-12T16:44:01.363Z,10.45
2019-03-12T16:46:28.804Z,10.40
2019-03-12T16:48:56.062Z,10.38
2019-03-12T16:51:23.872Z,10.22
2019-03-12T16:53:51.234Z,10.11
2019-03-12T16:56:18.613Z,10.22
2019-03-12T16:58:45.777Z,10.23
2019-03-12T17:01:13.525Z,10.26
2019-03-12T17:03:40.709Z,10.24
2019-03-12T17:06:07.935Z,10.16
2019-03-12T17:08:35.494Z,10.08
2019-03-12T17:11:03.238Z,10.05
2019-03-12T17:13:30.600Z,9.89
2019-03-12T17:15:57.823Z,9.74
2019-03-12T17:18:25.106Z,9.77
2019-03-12T17:20:52.198Z,9.62
2019-03-12T17:23:19.322Z,9.69
2019-03-12T17:25:46.660Z,9.49
2019-03-12T17:28:13.769Z,9.53
2019-03-12T17:30:40.990Z,9.62
2019-03-12T17:33:08.069Z,9.58
2019-03-12T17:35:35.206Z,9.58
2019-03-12T17:38:02.766Z,9.53
2019-03-12T17:40:29.973Z,9.52
2019-03-12T17:42:57.819Z,9.60
2019-03-12T17:45:25.023Z,9.63
2019-03-12T17:47:52.111Z,9.50
2019-03-12T17:50:19.285Z,9.48
2019-03-12T17:52:46.520Z,9.59
2019-03-12T17:55:14.002Z,9.79
2019-03-12T17:57:41.574Z,9.91
2019-03-12T18:00:12.503Z,9.97
2019-03-12T18:02:42.703Z,9.90
2019-03-12T18:05:10.160Z,9.75
2019-03-12T18:07:37.751Z,9.77
2019-03-12T18:10:05.387Z,9.83
2019-03-12T18:12:32.629Z,9.81
2019-03-12T18:14:59.879Z,9.83
2019-03-12T18:23:27.976Z,9.82
2019-03-12T18:26:07.488Z,9.94
2019-03-12T18:29:15.571Z,9.86
2019-03-12T18:38:04.993Z,9.74
2019-03-12T18:40:32.194Z,9.84
2019-03-12T18:43:14.619Z,9.81
2019-03-12T18:45:41.359Z,9.89
2019-03-12T18:48:08.809Z,9.81
2019-03-12T18:50:36.020Z,9.79
2019-03-12T18:53:03.496Z,9.96
2019-03-12T18:55:42.414Z,9.93
2019-03-12T18:58:09.597Z,10.04
2019-03-12T19:00:37.336Z,10.09
2019-03-12T19:03:04.639Z,10.16
2019-03-12T19:05:31.733Z,10.20
2019-03-12T19:07:59.164Z,10.26
2019-03-12T19:10:26.410Z,10.38
2019-03-12T19:12:53.825Z,10.34
2019-03-12T19:15:21.031Z,10.36
2019-03-12T19:17:48.121Z,10.28
2019-03-12T19:20:15.299Z,10.17
2019-03-12T19:22:42.533Z,10.03
2019-03-12T19:25:09.931Z,9.99
2019-03-12T19:27:37.437Z,10.18
2019-03-12T19:30:05.714Z,10.10
2019-03-12T19:32:52.723Z,10.04
2019-03-12T19:35:20.216Z,10.01
2019-03-12T19:37:47.632Z,10.32
2019-03-12T19:40:16.288Z,10.28
2019-03-12T19:42:43.497Z,10.46
2019-03-12T19:45:11.478Z,10.56
2019-03-12T19:47:38.614Z,10.60
2019-03-12T19:50:08.288Z,10.41
2019-03-12T19:52:35.667Z,10.30
2019-03-12T19:55:04.064Z,10.62
2019-03-12T19:57:32.013Z,10.69
2019-03-12T19:59:59.176Z,10.64
2019-03-12T20:02:28.085Z,10.60
2019-03-12T20:04:55.184Z,10.58
2019-03-12T20:07:22.418Z,10.45
2019-03-12T20:10:25.462Z,10.54
2019-03-12T20:13:30.473Z,10.55
2019-03-12T20:16:34.486Z,10.45
2019-03-12T20:19:54.884Z,10.26
2019-03-12T20:23:03.638Z,10.35
2019-03-12T20:26:39.995Z,10.52
2019-03-12T20:29:54.675Z,10.64
2019-03-12T20:33:15.641Z,10.63
2019-03-12T20:36:19.444Z,10.53
2019-03-12T20:39:21.352Z,10.57
2019-03-12T20:42:26.242Z,10.75
2019-03-12T20:45:39.887Z,10.83
2019-03-12T20:48:49.395Z,10.82
2019-03-12T20:52:03.255Z,10.71
2019-03-12T20:55:08.364Z,10.72
2019-03-12T20:58:23.258Z,10.76
2019-03-12T21:01:40.615Z,11.00
2019-03-12T21:04:44.277Z,11.03
2019-03-12T21:07:48.012Z,10.87
2019-03-12T21:10:53.213Z,10.88
2019-03-12T21:14:20.839Z,10.88
2019-03-12T21:17:17.149Z,10.75
2019-03-12T21:20:32.407Z,10.99
2019-03-12T21:23:19.701Z,11.03
2019-03-12T21:26:37.195Z,10.90
2019-03-12T21:29:40.896Z,10.88
2019-03-12T21:32:08.424Z,11.07
2019-03-12T21:34:35.628Z,11.09
2019-03-12T21:37:03.039Z,11.02
2019-03-12T21:39:30.310Z,11.01
2019-03-12T21:41:58.056Z,11.01
2019-03-12T21:44:25.355Z,10.98
2019-03-12T21:46:53.245Z,10.95
2019-03-12T21:49:20.352Z,10.91
2019-03-12T21:51:47.660Z,10.98
2019-03-12T21:54:14.816Z,10.93
2019-03-12T21:56:42.051Z,10.95
2019-03-12T21:59:09.304Z,10.91
2019-03-12T22:01:36.715Z,10.78
2019-03-12T22:04:03.878Z,10.65
2019-03-12T22:06:31.113Z,10.86
2019-03-12T22:08:58.354Z,10.96
2019-03-12T22:11:25.597Z,10.83
2019-03-12T22:13:52.772Z,10.76
2019-03-12T22:16:19.976Z,10.75
2019-03-12T22:18:47.140Z,10.62
2019-03-12T22:21:16.248Z,10.63
2019-03-12T22:23:46.856Z,10.83
2019-03-12T22:26:14.060Z,10.73
2019-03-12T22:28:41.564Z,10.65
2019-03-12T22:31:08.722Z,10.81
2019-03-12T22:33:35.888Z,10.73
2019-03-12T22:36:03.114Z,10.53
2019-03-12T22:38:30.365Z,10.52
2019-03-12T22:40:57.573Z,10.76
2019-03-12T22:43:24.759Z,10.76
2019-03-12T22:45:52.057Z,10.75
2019-03-12T22:48:19.223Z,10.70
2019-03-12T22:50:46.317Z,10.67
2019-03-12T22:53:13.925Z,10.87
2019-03-12T22:55:41.111Z,10.81
2019-03-12T22:58:08.432Z,10.77
2019-03-12T23:00:37.543Z,10.72
2019-03-12T23:03:05.238Z,10.83
2019-03-12T23:05:32.344Z,10.81
2019-03-12T23:07:59.540Z,10.84
2019-03-12T23:10:26.722Z,10.80
2019-03-12T23:12:54.137Z,10.78
2019-03-12T23:15:21.225Z,10.69
2019-03-12T23:17:49.197Z,10.90
2019-03-12T23:20:17.519Z,10.86
2019-03-12T23:22:45.111Z,10.93
2019-03-12T23:25:12.377Z,10.93
2019-03-12T23:27:39.567Z,10.74
2019-03-12T23:30:09.557Z,10.65
2019-03-12T23:32:36.721Z,10.56
2019-03-12T23:35:05.083Z,10.75
2019-03-12T23:37:32.723Z,10.60
2019-03-12T23:39:59.944Z,10.67
2019-03-12T23:42:27.143Z,10.74
2019-03-12T23:44:54.375Z,10.66
2019-03-12T23:47:21.530Z,10.53
2019-03-12T23:49:48.819Z,10.37
2019-03-12T23:52:16.192Z,10.32
2019-03-12T23:54:43.401Z,9.89
2019-03-12T23:57:10.571Z,9.51
2019-03-12T23:59:38.299Z,9.20
